Perry, Missouri
Current Conditions -  °F | °C
As of 1:55 AM on Tuesday 21 Oct 2014 (Local Time) from KHAE Reporting Station
Clear Clear  
Wind Chill: 52°   Ceiling: Unl
Heat Index: 52°   Visibility: 10mi
Dew Point: 41°   Wind: 3mph
Humidity: 67%   Direction: 290°WNW
Pressure: 30.05"   Gusts: NA
Location:  39.43°N, 91.68°W
Report Text: KHAE 210655Z AUTO 29003KT 10SM CLR 11/05 A3005 RMK AO2
Loading
Personal Weather Stations






























Interactive Weather Map
Tropical Storm Tracking
New forecast layout! Learn more

10-Day Weather Forecast

Advertisements
Track Severe Weather on mobile